sensor_id;sensor_type;location;lat;lon;timestamp;P1;durP1;ratioP1;P2;durP2;ratioP2
9739;SDS011;4909;42.680;26.324;2024-01-15T00:02:26;58.63;;;39.10;;
9739;SDS011;4909;42.680;26.324;2024-01-15T00:04:53;57.80;;;38.63;;
9739;SDS011;4909;42.680;26.324;2024-01-15T00:07:19;57.57;;;38.20;;
9739;SDS011;4909;42.680;26.324;2024-01-15T00:09:46;56.93;;;37.80;;
9739;SDS011;4909;42.680;26.324;2024-01-15T00:12:13;60.07;;;39.13;;
9739;SDS011;4909;42.680;26.324;2024-01-15T00:14:40;58.67;;;38.17;;
9739;SDS011;4909;42.680;26.324;2024-01-15T00:17:09;56.87;;;37.93;;
9739;SDS011;4909;42.680;26.324;2024-01-15T00:19:36;55.77;;;37.17;;
9739;SDS011;4909;42.680;26.324;2024-01-15T00:22:03;60.60;;;38.40;;
9739;SDS011;4909;42.680;26.324;2024-01-15T00:24:30;56.67;;;37.57;;
9739;SDS011;4909;42.680;26.324;2024-01-15T00:26:57;60.43;;;38.60;;
9739;SDS011;4909;42.680;26.324;2024-01-15T00:29:24;57.70;;;37.97;;
9739;SDS011;4909;42.680;26.324;2024-01-15T00:31:51;59.83;;;39.20;;
9739;SDS011;4909;42.680;26.324;2024-01-15T00:34:19;57.67;;;37.93;;
9739;SDS011;4909;42.680;26.324;2024-01-15T00:36:46;53.13;;;36.63;;
9739;SDS011;4909;42.680;26.324;2024-01-15T00:39:13;54.90;;;37.30;;
9739;SDS011;4909;42.680;26.324;2024-01-15T00:41:42;56.07;;;37.53;;
9739;SDS011;4909;42.680;26.324;2024-01-15T00:44:09;55.87;;;37.83;;
9739;SDS011;4909;42.680;26.324;2024-01-15T00:46:41;55.47;;;37.13;;
9739;SDS011;4909;42.680;26.324;2024-01-15T00:49:09;55.53;;;36.73;;
9739;SDS011;4909;42.680;26.324;2024-01-15T00:51:39;53.70;;;36.77;;
9739;SDS011;4909;42.680;26.324;2024-01-15T00:54:06;56.30;;;37.43;;
9739;SDS011;4909;42.680;26.324;2024-01-15T00:56:33;53.63;;;36.63;;
9739;SDS011;4909;42.680;26.324;2024-01-15T00:59:00;52.67;;;36.63;;
9739;SDS011;4909;42.680;26.324;2024-01-15T01:01:27;56.93;;;38.03;;
9739;SDS011;4909;42.680;26.324;2024-01-15T01:03:55;56.30;;;37.90;;
9739;SDS011;4909;42.680;26.324;2024-01-15T01:06:22;56.40;;;37.43;;
9739;SDS011;4909;42.680;26.324;2024-01-15T01:08:50;57.77;;;38.07;;
9739;SDS011;4909;42.680;26.324;2024-01-15T01:11:17;54.63;;;37.80;;
9739;SDS011;4909;42.680;26.324;2024-01-15T01:13:44;57.20;;;37.90;;
9739;SDS011;4909;42.680;26.324;2024-01-15T01:16:11;58.93;;;37.57;;
9739;SDS011;4909;42.680;26.324;2024-01-15T01:18:38;54.00;;;36.63;;
9739;SDS011;4909;42.680;26.324;2024-01-15T01:21:05;47.97;;;34.97;;
9739;SDS011;4909;42.680;26.324;2024-01-15T01:23:32;50.67;;;36.03;;
9739;SDS011;4909;42.680;26.324;2024-01-15T01:26:01;49.93;;;34.70;;
9739;SDS011;4909;42.680;26.324;2024-01-15T01:28:28;50.23;;;35.33;;
9739;SDS011;4909;42.680;26.324;2024-01-15T01:30:55;49.60;;;35.47;;
9739;SDS011;4909;42.680;26.324;2024-01-15T01:33:22;49.03;;;35.10;;
9739;SDS011;4909;42.680;26.324;2024-01-15T01:35:49;47.07;;;34.57;;
9739;SDS011;4909;42.680;26.324;2024-01-15T01:38:16;47.87;;;34.33;;
9739;SDS011;4909;42.680;26.324;2024-01-15T01:40:43;47.53;;;34.03;;
9739;SDS011;4909;42.680;26.324;2024-01-15T01:43:11;44.10;;;33.30;;
9739;SDS011;4909;42.680;26.324;2024-01-15T01:45:38;44.97;;;34.03;;
9739;SDS011;4909;42.680;26.324;2024-01-15T01:48:05;48.80;;;34.53;;
9739;SDS011;4909;42.680;26.324;2024-01-15T01:50:32;44.10;;;33.97;;
9739;SDS011;4909;42.680;26.324;2024-01-15T01:53:00;47.57;;;34.23;;
9739;SDS011;4909;42.680;26.324;2024-01-15T01:55:29;43.30;;;32.83;;
9739;SDS011;4909;42.680;26.324;2024-01-15T01:57:58;44.73;;;33.07;;
9739;SDS011;4909;42.680;26.324;2024-01-15T02:00:28;44.57;;;33.27;;
9739;SDS011;4909;42.680;26.324;2024-01-15T02:02:56;44.00;;;32.97;;
9739;SDS011;4909;42.680;26.324;2024-01-15T02:05:23;42.20;;;32.83;;
9739;SDS011;4909;42.680;26.324;2024-01-15T02:07:51;45.63;;;33.73;;
9739;SDS011;4909;42.680;26.324;2024-01-15T02:10:18;43.27;;;33.30;;
9739;SDS011;4909;42.680;26.324;2024-01-15T02:12:45;36.33;;;30.63;;
9739;SDS011;4909;42.680;26.324;2024-01-15T02:15:13;37.20;;;31.13;;
9739;SDS011;4909;42.680;26.324;2024-01-15T02:17:57;39.07;;;31.23;;
9739;SDS011;4909;42.680;26.324;2024-01-15T02:20:25;41.90;;;32.27;;
9739;SDS011;4909;42.680;26.324;2024-01-15T02:22:52;41.43;;;32.30;;
9739;SDS011;4909;42.680;26.324;2024-01-15T02:25:21;40.30;;;31.50;;
9739;SDS011;4909;42.680;26.324;2024-01-15T02:27:48;41.70;;;32.70;;
9739;SDS011;4909;42.680;26.324;2024-01-15T02:30:15;44.50;;;33.03;;
9739;SDS011;4909;42.680;26.324;2024-01-15T02:32:43;41.00;;;32.30;;
9739;SDS011;4909;42.680;26.324;2024-01-15T02:35:10;37.87;;;31.00;;
9739;SDS011;4909;42.680;26.324;2024-01-15T02:37:37;40.53;;;31.80;;
9739;SDS011;4909;42.680;26.324;2024-01-15T02:40:04;37.87;;;31.10;;
9739;SDS011;4909;42.680;26.324;2024-01-15T02:42:33;40.40;;;31.60;;
9739;SDS011;4909;42.680;26.324;2024-01-15T02:45:00;40.60;;;31.93;;
9739;SDS011;4909;42.680;26.324;2024-01-15T02:47:27;40.53;;;32.13;;
9739;SDS011;4909;42.680;26.324;2024-01-15T02:49:54;38.77;;;31.17;;
9739;SDS011;4909;42.680;26.324;2024-01-15T02:52:21;33.80;;;29.13;;
9739;SDS011;4909;42.680;26.324;2024-01-15T02:54:48;39.20;;;31.57;;
9739;SDS011;4909;42.680;26.324;2024-01-15T02:57:15;40.47;;;32.73;;
9739;SDS011;4909;42.680;26.324;2024-01-15T02:59:43;43.47;;;33.50;;
9739;SDS011;4909;42.680;26.324;2024-01-15T03:02:10;41.90;;;33.03;;
9739;SDS011;4909;42.680;26.324;2024-01-15T03:04:42;42.23;;;33.70;;
9739;SDS011;4909;42.680;26.324;2024-01-15T03:07:09;42.07;;;33.20;;
9739;SDS011;4909;42.680;26.324;2024-01-15T03:09:36;43.73;;;32.90;;
9739;SDS011;4909;42.680;26.324;2024-01-15T03:12:04;43.43;;;33.50;;
9739;SDS011;4909;42.680;26.324;2024-01-15T03:14:31;47.00;;;33.50;;
9739;SDS011;4909;42.680;26.324;2024-01-15T03:16:59;43.20;;;33.40;;
9739;SDS011;4909;42.680;26.324;2024-01-15T03:19:27;44.43;;;33.70;;
9739;SDS011;4909;42.680;26.324;2024-01-15T03:21:54;42.87;;;33.43;;
9739;SDS011;4909;42.680;26.324;2024-01-15T03:24:21;46.93;;;34.77;;
9739;SDS011;4909;42.680;26.324;2024-01-15T03:26:48;42.40;;;33.00;;
9739;SDS011;4909;42.680;26.324;2024-01-15T03:29:15;42.27;;;33.17;;
9739;SDS011;4909;42.680;26.324;2024-01-15T03:31:42;43.37;;;33.47;;
9739;SDS011;4909;42.680;26.324;2024-01-15T03:34:10;39.23;;;32.27;;
9739;SDS011;4909;42.680;26.324;2024-01-15T03:36:37;40.63;;;32.77;;
9739;SDS011;4909;42.680;26.324;2024-01-15T03:39:05;42.07;;;32.37;;
9739;SDS011;4909;42.680;26.324;2024-01-15T03:41:32;41.70;;;32.30;;
9739;SDS011;4909;42.680;26.324;2024-01-15T03:43:59;43.17;;;33.77;;
9739;SDS011;4909;42.680;26.324;2024-01-15T03:46:27;44.00;;;33.80;;
9739;SDS011;4909;42.680;26.324;2024-01-15T03:48:54;45.23;;;34.53;;
9739;SDS011;4909;42.680;26.324;2024-01-15T03:51:22;44.17;;;34.03;;
9739;SDS011;4909;42.680;26.324;2024-01-15T03:53:49;42.97;;;33.83;;
9739;SDS011;4909;42.680;26.324;2024-01-15T03:56:17;45.83;;;34.97;;
9739;SDS011;4909;42.680;26.324;2024-01-15T03:58:44;45.37;;;34.47;;
9739;SDS011;4909;42.680;26.324;2024-01-15T04:01:11;44.13;;;33.83;;
9739;SDS011;4909;42.680;26.324;2024-01-15T04:03:38;44.77;;;34.33;;
9739;SDS011;4909;42.680;26.324;2024-01-15T04:06:05;44.47;;;34.10;;
9739;SDS011;4909;42.680;26.324;2024-01-15T04:08:33;44.33;;;34.00;;
9739;SDS011;4909;42.680;26.324;2024-01-15T04:11:00;45.43;;;34.63;;
9739;SDS011;4909;42.680;26.324;2024-01-15T04:13:28;46.83;;;34.30;;
9739;SDS011;4909;42.680;26.324;2024-01-15T04:15:55;46.43;;;35.10;;
9739;SDS011;4909;42.680;26.324;2024-01-15T04:18:22;46.37;;;35.57;;
9739;SDS011;4909;42.680;26.324;2024-01-15T04:20:48;52.50;;;36.30;;
9739;SDS011;4909;42.680;26.324;2024-01-15T04:23:15;51.60;;;36.63;;
9739;SDS011;4909;42.680;26.324;2024-01-15T04:25:44;42.60;;;34.27;;
9739;SDS011;4909;42.680;26.324;2024-01-15T04:28:11;44.13;;;34.43;;
9739;SDS011;4909;42.680;26.324;2024-01-15T04:30:38;47.47;;;35.00;;
9739;SDS011;4909;42.680;26.324;2024-01-15T04:33:05;47.87;;;34.73;;
9739;SDS011;4909;42.680;26.324;2024-01-15T04:35:32;45.80;;;34.00;;
9739;SDS011;4909;42.680;26.324;2024-01-15T04:38:00;44.63;;;34.83;;
9739;SDS011;4909;42.680;26.324;2024-01-15T04:40:27;49.37;;;35.97;;
9739;SDS011;4909;42.680;26.324;2024-01-15T04:42:55;43.73;;;33.73;;
9739;SDS011;4909;42.680;26.324;2024-01-15T04:45:22;43.87;;;34.33;;
9739;SDS011;4909;42.680;26.324;2024-01-15T04:47:53;45.57;;;36.67;;
9739;SDS011;4909;42.680;26.324;2024-01-15T04:50:21;45.10;;;34.93;;
9739;SDS011;4909;42.680;26.324;2024-01-15T04:52:49;44.47;;;34.80;;
9739;SDS011;4909;42.680;26.324;2024-01-15T04:55:16;33.90;;;30.23;;
9739;SDS011;4909;42.680;26.324;2024-01-15T04:57:43;38.93;;;31.90;;
9739;SDS011;4909;42.680;26.324;2024-01-15T05:00:12;38.50;;;32.70;;
9739;SDS011;4909;42.680;26.324;2024-01-15T05:02:39;46.47;;;35.00;;
9739;SDS011;4909;42.680;26.324;2024-01-15T05:05:07;47.47;;;35.33;;
9739;SDS011;4909;42.680;26.324;2024-01-15T05:07:34;54.93;;;44.10;;
9739;SDS011;4909;42.680;26.324;2024-01-15T05:10:01;51.63;;;36.73;;
9739;SDS011;4909;42.680;26.324;2024-01-15T05:12:28;52.20;;;36.37;;
9739;SDS011;4909;42.680;26.324;2024-01-15T05:14:55;52.63;;;37.20;;
9739;SDS011;4909;42.680;26.324;2024-01-15T05:17:24;53.47;;;37.63;;
9739;SDS011;4909;42.680;26.324;2024-01-15T05:19:51;54.93;;;37.73;;
9739;SDS011;4909;42.680;26.324;2024-01-15T05:22:18;55.70;;;37.57;;
9739;SDS011;4909;42.680;26.324;2024-01-15T05:24:46;52.60;;;36.80;;
9739;SDS011;4909;42.680;26.324;2024-01-15T05:27:13;49.80;;;35.83;;
9739;SDS011;4909;42.680;26.324;2024-01-15T05:29:41;50.00;;;36.07;;
9739;SDS011;4909;42.680;26.324;2024-01-15T05:32:08;49.23;;;36.07;;
9739;SDS011;4909;42.680;26.324;2024-01-15T05:34:36;45.83;;;34.97;;
9739;SDS011;4909;42.680;26.324;2024-01-15T05:37:03;47.77;;;35.67;;
9739;SDS011;4909;42.680;26.324;2024-01-15T05:39:30;55.13;;;37.93;;
9739;SDS011;4909;42.680;26.324;2024-01-15T05:41:58;51.07;;;36.20;;
9739;SDS011;4909;42.680;26.324;2024-01-15T05:44:25;57.23;;;37.43;;
9739;SDS011;4909;42.680;26.324;2024-01-15T05:46:53;49.77;;;36.47;;
9739;SDS011;4909;42.680;26.324;2024-01-15T05:49:20;47.90;;;35.57;;
9739;SDS011;4909;42.680;26.324;2024-01-15T05:51:48;51.13;;;36.47;;
9739;SDS011;4909;42.680;26.324;2024-01-15T05:54:17;50.00;;;36.43;;
9739;SDS011;4909;42.680;26.324;2024-01-15T05:56:44;48.97;;;35.60;;
9739;SDS011;4909;42.680;26.324;2024-01-15T05:59:11;49.73;;;36.97;;
9739;SDS011;4909;42.680;26.324;2024-01-15T06:01:40;54.53;;;37.80;;
9739;SDS011;4909;42.680;26.324;2024-01-15T06:04:07;41.17;;;33.83;;
9739;SDS011;4909;42.680;26.324;2024-01-15T06:06:34;44.00;;;34.13;;
9739;SDS011;4909;42.680;26.324;2024-01-15T06:09:03;36.47;;;32.13;;
9739;SDS011;4909;42.680;26.324;2024-01-15T06:11:31;34.80;;;31.10;;
9739;SDS011;4909;42.680;26.324;2024-01-15T06:13:58;43.73;;;34.00;;
9739;SDS011;4909;42.680;26.324;2024-01-15T06:16:26;49.17;;;35.57;;
9739;SDS011;4909;42.680;26.324;2024-01-15T06:18:53;53.20;;;37.43;;
9739;SDS011;4909;42.680;26.324;2024-01-15T06:21:20;55.93;;;37.50;;
9739;SDS011;4909;42.680;26.324;2024-01-15T06:23:47;51.13;;;36.23;;
9739;SDS011;4909;42.680;26.324;2024-01-15T06:26:15;49.47;;;36.53;;
9739;SDS011;4909;42.680;26.324;2024-01-15T06:28:42;49.63;;;36.70;;
9739;SDS011;4909;42.680;26.324;2024-01-15T06:31:09;55.13;;;37.90;;
9739;SDS011;4909;42.680;26.324;2024-01-15T06:33:37;58.07;;;39.30;;
9739;SDS011;4909;42.680;26.324;2024-01-15T06:36:04;47.57;;;35.33;;
9739;SDS011;4909;42.680;26.324;2024-01-15T06:38:32;63.67;;;41.03;;
9739;SDS011;4909;42.680;26.324;2024-01-15T06:41:00;64.10;;;40.57;;
9739;SDS011;4909;42.680;26.324;2024-01-15T06:43:28;67.13;;;41.43;;
9739;SDS011;4909;42.680;26.324;2024-01-15T06:45:55;71.37;;;43.10;;
9739;SDS011;4909;42.680;26.324;2024-01-15T06:48:22;75.27;;;44.43;;
9739;SDS011;4909;42.680;26.324;2024-01-15T06:50:49;80.97;;;46.40;;
9739;SDS011;4909;42.680;26.324;2024-01-15T06:53:16;82.33;;;48.10;;
9739;SDS011;4909;42.680;26.324;2024-01-15T06:55:43;83.10;;;47.63;;
9739;SDS011;4909;42.680;26.324;2024-01-15T06:58:10;80.40;;;47.07;;
9739;SDS011;4909;42.680;26.324;2024-01-15T07:00:38;82.40;;;47.80;;
9739;SDS011;4909;42.680;26.324;2024-01-15T07:03:05;82.63;;;48.13;;
9739;SDS011;4909;42.680;26.324;2024-01-15T07:05:32;98.63;;;51.73;;
9739;SDS011;4909;42.680;26.324;2024-01-15T07:07:59;81.03;;;47.73;;
9739;SDS011;4909;42.680;26.324;2024-01-15T07:10:26;79.97;;;48.83;;
9739;SDS011;4909;42.680;26.324;2024-01-15T07:12:53;84.33;;;48.37;;
9739;SDS011;4909;42.680;26.324;2024-01-15T07:15:20;86.57;;;48.63;;
9739;SDS011;4909;42.680;26.324;2024-01-15T07:17:49;92.73;;;51.27;;
9739;SDS011;4909;42.680;26.324;2024-01-15T07:20:16;104.37;;;55.03;;
9739;SDS011;4909;42.680;26.324;2024-01-15T07:22:44;108.03;;;66.00;;
9739;SDS011;4909;42.680;26.324;2024-01-15T07:25:11;95.73;;;54.90;;
9739;SDS011;4909;42.680;26.324;2024-01-15T07:27:39;119.00;;;62.00;;
9739;SDS011;4909;42.680;26.324;2024-01-15T07:30:09;124.53;;;64.30;;
9739;SDS011;4909;42.680;26.324;2024-01-15T07:35:24;137.50;;;70.17;;
9739;SDS011;4909;42.680;26.324;2024-01-15T07:37:51;147.83;;;72.90;;
9739;SDS011;4909;42.680;26.324;2024-01-15T07:40:18;154.43;;;78.87;;
9739;SDS011;4909;42.680;26.324;2024-01-15T07:42:45;160.23;;;78.90;;
9739;SDS011;4909;42.680;26.324;2024-01-15T07:45:12;159.33;;;79.67;;
9739;SDS011;4909;42.680;26.324;2024-01-15T07:47:39;167.27;;;82.90;;
9739;SDS011;4909;42.680;26.324;2024-01-15T07:50:08;168.67;;;85.90;;
9739;SDS011;4909;42.680;26.324;2024-01-15T07:52:35;170.60;;;85.97;;
9739;SDS011;4909;42.680;26.324;2024-01-15T07:55:02;178.17;;;89.07;;
9739;SDS011;4909;42.680;26.324;2024-01-15T07:57:30;183.43;;;93.17;;
9739;SDS011;4909;42.680;26.324;2024-01-15T07:59:57;188.60;;;97.73;;
9739;SDS011;4909;42.680;26.324;2024-01-15T08:02:24;192.93;;;103.63;;
9739;SDS011;4909;42.680;26.324;2024-01-15T08:04:51;190.13;;;97.60;;
9739;SDS011;4909;42.680;26.324;2024-01-15T08:07:20;193.97;;;100.47;;
9739;SDS011;4909;42.680;26.324;2024-01-15T08:09:46;196.07;;;98.53;;
9739;SDS011;4909;42.680;26.324;2024-01-15T08:12:14;170.93;;;102.80;;
9739;SDS011;4909;42.680;26.324;2024-01-15T08:14:41;168.13;;;100.13;;
9739;SDS011;4909;42.680;26.324;2024-01-15T08:17:08;168.43;;;105.20;;
9739;SDS011;4909;42.680;26.324;2024-01-15T08:19:35;190.90;;;109.90;;
9739;SDS011;4909;42.680;26.324;2024-01-15T08:22:02;245.03;;;122.90;;
9739;SDS011;4909;42.680;26.324;2024-01-15T08:24:31;256.53;;;131.50;;
9739;SDS011;4909;42.680;26.324;2024-01-15T08:26:58;258.37;;;128.57;;
9739;SDS011;4909;42.680;26.324;2024-01-15T08:29:25;274.97;;;135.60;;
9739;SDS011;4909;42.680;26.324;2024-01-15T08:31:52;284.87;;;139.70;;
9739;SDS011;4909;42.680;26.324;2024-01-15T08:34:19;289.00;;;144.70;;
9739;SDS011;4909;42.680;26.324;2024-01-15T08:36:46;299.23;;;158.87;;
9739;SDS011;4909;42.680;26.324;2024-01-15T08:39:13;295.10;;;155.57;;
9739;SDS011;4909;42.680;26.324;2024-01-15T08:41:41;299.93;;;163.23;;
9739;SDS011;4909;42.680;26.324;2024-01-15T08:44:08;296.87;;;173.60;;
9739;SDS011;4909;42.680;26.324;2024-01-15T08:46:35;306.23;;;176.63;;
9739;SDS011;4909;42.680;26.324;2024-01-15T08:49:02;300.47;;;172.77;;
9739;SDS011;4909;42.680;26.324;2024-01-15T08:51:31;300.33;;;173.73;;
9739;SDS011;4909;42.680;26.324;2024-01-15T08:53:58;291.00;;;168.20;;
9739;SDS011;4909;42.680;26.324;2024-01-15T08:56:25;292.07;;;168.20;;
9739;SDS011;4909;42.680;26.324;2024-01-15T08:58:54;288.03;;;159.87;;
9739;SDS011;4909;42.680;26.324;2024-01-15T09:01:20;295.50;;;165.53;;
9739;SDS011;4909;42.680;26.324;2024-01-15T09:03:48;291.13;;;161.00;;
9739;SDS011;4909;42.680;26.324;2024-01-15T09:06:15;296.43;;;179.10;;
9739;SDS011;4909;42.680;26.324;2024-01-15T09:08:42;291.63;;;165.37;;
9739;SDS011;4909;42.680;26.324;2024-01-15T09:11:09;288.53;;;155.73;;
9739;SDS011;4909;42.680;26.324;2024-01-15T09:13:36;280.40;;;155.57;;
9739;SDS011;4909;42.680;26.324;2024-01-15T09:16:05;277.93;;;151.80;;
9739;SDS011;4909;42.680;26.324;2024-01-15T09:18:32;261.77;;;142.47;;
9739;SDS011;4909;42.680;26.324;2024-01-15T09:20:59;266.60;;;140.43;;
9739;SDS011;4909;42.680;26.324;2024-01-15T09:23:26;269.03;;;153.37;;
9739;SDS011;4909;42.680;26.324;2024-01-15T09:25:53;259.53;;;142.17;;
9739;SDS011;4909;42.680;26.324;2024-01-15T09:28:20;261.37;;;139.53;;
9739;SDS011;4909;42.680;26.324;2024-01-15T09:30:48;258.20;;;141.97;;
9739;SDS011;4909;42.680;26.324;2024-01-15T09:33:16;254.87;;;139.57;;
9739;SDS011;4909;42.680;26.324;2024-01-15T09:35:43;249.83;;;137.03;;
9739;SDS011;4909;42.680;26.324;2024-01-15T09:38:10;250.43;;;132.47;;
9739;SDS011;4909;42.680;26.324;2024-01-15T09:40:38;240.87;;;127.00;;
9739;SDS011;4909;42.680;26.324;2024-01-15T09:43:09;230.43;;;121.13;;
9739;SDS011;4909;42.680;26.324;2024-01-15T09:45:37;227.60;;;124.10;;
9739;SDS011;4909;42.680;26.324;2024-01-15T09:48:04;219.43;;;116.87;;
9739;SDS011;4909;42.680;26.324;2024-01-15T09:50:33;213.67;;;117.97;;
9739;SDS011;4909;42.680;26.324;2024-01-15T09:53:01;215.93;;;113.03;;
9739;SDS011;4909;42.680;26.324;2024-01-15T09:55:29;211.83;;;112.17;;
9739;SDS011;4909;42.680;26.324;2024-01-15T09:57:57;207.40;;;111.73;;
9739;SDS011;4909;42.680;26.324;2024-01-15T10:00:27;191.67;;;102.73;;
9739;SDS011;4909;42.680;26.324;2024-01-15T10:02:56;185.53;;;99.77;;
9739;SDS011;4909;42.680;26.324;2024-01-15T10:05:24;183.70;;;99.23;;
9739;SDS011;4909;42.680;26.324;2024-01-15T10:07:53;175.43;;;98.07;;
9739;SDS011;4909;42.680;26.324;2024-01-15T10:10:21;165.23;;;90.10;;
9739;SDS011;4909;42.680;26.324;2024-01-15T10:12:48;165.67;;;87.10;;
9739;SDS011;4909;42.680;26.324;2024-01-15T10:15:16;163.43;;;88.23;;
9739;SDS011;4909;42.680;26.324;2024-01-15T10:17:43;160.50;;;86.40;;
9739;SDS011;4909;42.680;26.324;2024-01-15T10:20:10;151.83;;;82.37;;
9739;SDS011;4909;42.680;26.324;2024-01-15T10:22:39;150.60;;;82.90;;
9739;SDS011;4909;42.680;26.324;2024-01-15T10:25:11;153.57;;;81.07;;
9739;SDS011;4909;42.680;26.324;2024-01-15T10:27:38;150.03;;;81.40;;
9739;SDS011;4909;42.680;26.324;2024-01-15T10:30:06;152.00;;;80.40;;
9739;SDS011;4909;42.680;26.324;2024-01-15T10:32:34;148.30;;;80.97;;
9739;SDS011;4909;42.680;26.324;2024-01-15T10:35:01;145.20;;;76.60;;
9739;SDS011;4909;42.680;26.324;2024-01-15T10:37:30;135.77;;;75.77;;
9739;SDS011;4909;42.680;26.324;2024-01-15T10:40:00;139.03;;;75.60;;
9739;SDS011;4909;42.680;26.324;2024-01-15T10:42:31;134.00;;;74.83;;
9739;SDS011;4909;42.680;26.324;2024-01-15T10:44:58;135.73;;;72.07;;
9739;SDS011;4909;42.680;26.324;2024-01-15T10:47:25;132.93;;;71.57;;
9739;SDS011;4909;42.680;26.324;2024-01-15T10:49:53;130.17;;;68.90;;
9739;SDS011;4909;42.680;26.324;2024-01-15T10:52:20;131.53;;;72.27;;
9739;SDS011;4909;42.680;26.324;2024-01-15T10:54:48;130.70;;;69.60;;
9739;SDS011;4909;42.680;26.324;2024-01-15T10:57:16;125.23;;;69.30;;
9739;SDS011;4909;42.680;26.324;2024-01-15T10:59:45;125.43;;;66.73;;
9739;SDS011;4909;42.680;26.324;2024-01-15T11:02:13;122.30;;;66.70;;
9739;SDS011;4909;42.680;26.324;2024-01-15T11:04:41;124.10;;;66.23;;
9739;SDS011;4909;42.680;26.324;2024-01-15T11:07:08;129.70;;;70.43;;
9739;SDS011;4909;42.680;26.324;2024-01-15T11:09:37;126.17;;;68.20;;
9739;SDS011;4909;42.680;26.324;2024-01-15T11:12:07;128.53;;;67.13;;
9739;SDS011;4909;42.680;26.324;2024-01-15T11:14:40;132.57;;;69.73;;
9739;SDS011;4909;42.680;26.324;2024-01-15T11:17:10;127.47;;;67.70;;
9739;SDS011;4909;42.680;26.324;2024-01-15T11:19:38;133.00;;;70.17;;
9739;SDS011;4909;42.680;26.324;2024-01-15T11:22:09;131.87;;;70.53;;
9739;SDS011;4909;42.680;26.324;2024-01-15T11:24:56;131.63;;;70.43;;
9739;SDS011;4909;42.680;26.324;2024-01-15T11:27:39;144.40;;;75.90;;
9739;SDS011;4909;42.680;26.324;2024-01-15T11:30:07;136.13;;;69.23;;
9739;SDS011;4909;42.680;26.324;2024-01-15T11:32:38;140.53;;;74.00;;
9739;SDS011;4909;42.680;26.324;2024-01-15T11:35:07;131.23;;;73.87;;
9739;SDS011;4909;42.680;26.324;2024-01-15T11:40:36;131.97;;;72.07;;
9739;SDS011;4909;42.680;26.324;2024-01-15T11:43:04;136.83;;;72.33;;
9739;SDS011;4909;42.680;26.324;2024-01-15T11:45:32;134.70;;;71.63;;
9739;SDS011;4909;42.680;26.324;2024-01-15T11:48:11;141.97;;;73.37;;
9739;SDS011;4909;42.680;26.324;2024-01-15T11:50:42;131.00;;;69.10;;
9739;SDS011;4909;42.680;26.324;2024-01-15T11:53:17;136.40;;;72.03;;
9739;SDS011;4909;42.680;26.324;2024-01-15T11:55:50;138.07;;;72.03;;
9739;SDS011;4909;42.680;26.324;2024-01-15T11:58:18;131.37;;;69.93;;
9739;SDS011;4909;42.680;26.324;2024-01-15T12:00:47;134.97;;;71.97;;
9739;SDS011;4909;42.680;26.324;2024-01-15T12:03:16;139.13;;;72.87;;
9739;SDS011;4909;42.680;26.324;2024-01-15T12:05:43;127.47;;;68.13;;
9739;SDS011;4909;42.680;26.324;2024-01-15T12:08:10;133.70;;;69.40;;
9739;SDS011;4909;42.680;26.324;2024-01-15T12:10:37;134.53;;;71.17;;
9739;SDS011;4909;42.680;26.324;2024-01-15T12:13:25;136.10;;;74.77;;
9739;SDS011;4909;42.680;26.324;2024-01-15T12:15:54;132.07;;;70.63;;
9739;SDS011;4909;42.680;26.324;2024-01-15T12:18:21;132.97;;;73.03;;
9739;SDS011;4909;42.680;26.324;2024-01-15T12:20:48;130.43;;;71.60;;
9739;SDS011;4909;42.680;26.324;2024-01-15T12:23:15;143.23;;;76.90;;
9739;SDS011;4909;42.680;26.324;2024-01-15T12:25:42;141.60;;;75.50;;
9739;SDS011;4909;42.680;26.324;2024-01-15T12:28:09;139.90;;;75.53;;
9739;SDS011;4909;42.680;26.324;2024-01-15T12:30:38;142.90;;;75.43;;
9739;SDS011;4909;42.680;26.324;2024-01-15T12:33:06;152.60;;;78.83;;
9739;SDS011;4909;42.680;26.324;2024-01-15T12:35:34;141.97;;;75.67;;
9739;SDS011;4909;42.680;26.324;2024-01-15T12:38:01;146.80;;;80.80;;
9739;SDS011;4909;42.680;26.324;2024-01-15T12:40:29;145.13;;;76.23;;
9739;SDS011;4909;42.680;26.324;2024-01-15T12:42:57;140.97;;;75.37;;
9739;SDS011;4909;42.680;26.324;2024-01-15T12:45:24;151.30;;;82.80;;
9739;SDS011;4909;42.680;26.324;2024-01-15T12:47:52;147.73;;;83.43;;
9739;SDS011;4909;42.680;26.324;2024-01-15T12:50:23;137.83;;;76.87;;
9739;SDS011;4909;42.680;26.324;2024-01-15T12:52:51;138.97;;;76.93;;
9739;SDS011;4909;42.680;26.324;2024-01-15T12:55:18;145.00;;;79.33;;
9739;SDS011;4909;42.680;26.324;2024-01-15T12:57:45;137.67;;;74.03;;
9739;SDS011;4909;42.680;26.324;2024-01-15T13:00:13;142.10;;;83.87;;
9739;SDS011;4909;42.680;26.324;2024-01-15T13:02:41;151.50;;;85.93;;
9739;SDS011;4909;42.680;26.324;2024-01-15T13:05:10;141.90;;;81.43;;
9739;SDS011;4909;42.680;26.324;2024-01-15T13:07:37;139.30;;;79.57;;
9739;SDS011;4909;42.680;26.324;2024-01-15T13:10:04;141.47;;;77.23;;
9739;SDS011;4909;42.680;26.324;2024-01-15T13:12:32;141.90;;;79.17;;
9739;SDS011;4909;42.680;26.324;2024-01-15T13:15:00;140.27;;;77.27;;
9739;SDS011;4909;42.680;26.324;2024-01-15T13:17:28;136.67;;;79.07;;
9739;SDS011;4909;42.680;26.324;2024-01-15T13:19:55;140.97;;;103.77;;
9739;SDS011;4909;42.680;26.324;2024-01-15T13:22:24;138.27;;;79.47;;
9739;SDS011;4909;42.680;26.324;2024-01-15T13:24:57;135.80;;;77.00;;
9739;SDS011;4909;42.680;26.324;2024-01-15T13:27:23;137.73;;;79.20;;
9739;SDS011;4909;42.680;26.324;2024-01-15T13:29:51;137.93;;;78.27;;
9739;SDS011;4909;42.680;26.324;2024-01-15T13:32:20;136.53;;;92.33;;
9739;SDS011;4909;42.680;26.324;2024-01-15T13:34:50;138.93;;;76.80;;
9739;SDS011;4909;42.680;26.324;2024-01-15T13:37:17;136.37;;;76.70;;
9739;SDS011;4909;42.680;26.324;2024-01-15T13:39:46;135.73;;;77.93;;
9739;SDS011;4909;42.680;26.324;2024-01-15T13:42:13;139.13;;;76.20;;
9739;SDS011;4909;42.680;26.324;2024-01-15T13:44:40;134.47;;;73.43;;
9739;SDS011;4909;42.680;26.324;2024-01-15T13:47:10;131.67;;;72.20;;
9739;SDS011;4909;42.680;26.324;2024-01-15T13:49:38;133.53;;;75.00;;
9739;SDS011;4909;42.680;26.324;2024-01-15T13:52:05;134.97;;;75.57;;
9739;SDS011;4909;42.680;26.324;2024-01-15T13:54:32;133.00;;;80.20;;
9739;SDS011;4909;42.680;26.324;2024-01-15T13:57:00;135.73;;;79.47;;
9739;SDS011;4909;42.680;26.324;2024-01-15T13:59:27;132.57;;;73.03;;
9739;SDS011;4909;42.680;26.324;2024-01-15T14:01:54;135.90;;;76.97;;
9739;SDS011;4909;42.680;26.324;2024-01-15T14:04:22;138.03;;;78.63;;
9739;SDS011;4909;42.680;26.324;2024-01-15T14:06:49;131.33;;;74.47;;
9739;SDS011;4909;42.680;26.324;2024-01-15T14:09:16;129.63;;;75.60;;
9739;SDS011;4909;42.680;26.324;2024-01-15T14:11:43;130.77;;;73.40;;
9739;SDS011;4909;42.680;26.324;2024-01-15T14:14:12;124.87;;;70.63;;
9739;SDS011;4909;42.680;26.324;2024-01-15T14:16:39;129.17;;;73.33;;
9739;SDS011;4909;42.680;26.324;2024-01-15T14:19:06;130.80;;;70.40;;
9739;SDS011;4909;42.680;26.324;2024-01-15T14:21:34;119.70;;;67.83;;
9739;SDS011;4909;42.680;26.324;2024-01-15T14:24:01;106.40;;;66.70;;
9739;SDS011;4909;42.680;26.324;2024-01-15T14:26:29;89.80;;;63.43;;
9739;SDS011;4909;42.680;26.324;2024-01-15T14:28:55;78.03;;;57.10;;
9739;SDS011;4909;42.680;26.324;2024-01-15T14:31:24;83.30;;;63.67;;
9739;SDS011;4909;42.680;26.324;2024-01-15T14:33:53;75.83;;;58.90;;
9739;SDS011;4909;42.680;26.324;2024-01-15T14:36:21;80.37;;;61.33;;